Time;durP1;ratioP1;P1;durP2;ratioP2;P2;SDS_P1;SDS_P2;PMS_P1;PMS_P2;Temp;Humidity;BMP_temperature;BMP_pressure;BME280_temperature;BME280_humidity;BME280_pressure;Samples;Min_cycle;Max_cycle;Signal;HPM_P1;HPM_P2
2022/08/09 00:01:47;;;;;;;10.77;5.72;;;;;;;17.70;77.82;100479.84;4749616;30;20064;-84
2022/08/09 00:04:18;;;;;;;10.38;6.50;;;;;;;17.99;78.13;100522.09;4750501;30;20049;-83
2022/08/09 00:06:45;;;;;;;7.57;5.15;;;;;;;17.98;77.77;100529.13;4736969;30;20040;-84
2022/08/09 00:09:12;;;;;;;8.77;5.55;;;;;;;17.81;77.88;100494.47;4745443;30;20057;-84
2022/08/09 00:11:38;;;;;;;10.23;5.65;;;;;;;17.80;77.52;100479.56;4736438;30;20053;-84
2022/08/09 00:14:05;;;;;;;6.97;4.60;;;;;;;17.69;77.79;100449.19;4734346;30;20032;-84
2022/08/09 00:16:31;;;;;;;15.32;5.95;;;;;;;17.74;77.61;100442.03;4709295;30;20091;-83
2022/08/09 00:18:58;;;;;;;6.38;4.88;;;;;;;17.52;77.67;100398.81;4729552;30;20056;-81
2022/08/09 00:21:24;;;;;;;7.78;4.90;;;;;;;17.52;77.48;100418.06;4711800;30;20052;-86
2022/08/09 00:23:50;;;;;;;6.47;4.63;;;;;;;17.26;77.65;100393.34;4696405;30;20176;-84
2022/08/09 00:26:16;;;;;;;5.50;4.45;;;;;;;17.55;77.77;100440.78;4697466;30;20108;-83
2022/08/09 00:28:42;;;;;;;7.65;4.90;;;;;;;17.69;77.85;100454.44;4712137;30;20048;-84
2022/08/09 00:31:09;;;;;;;7.63;4.70;;;;;;;17.71;77.68;100463.16;4716068;30;20127;-83
2022/08/09 00:33:35;;;;;;;7.10;4.63;;;;;;;17.25;77.66;100390.75;4729430;30;20063;-86
2022/08/09 00:36:02;;;;;;;7.82;4.32;;;;;;;17.26;77.71;100385.44;4711121;30;20064;-84
2022/08/09 00:38:28;;;;;;;6.55;4.20;;;;;;;17.61;77.22;100466.94;4725272;30;20077;-83
2022/08/09 00:40:54;;;;;;;6.15;4.13;;;;;;;17.54;77.44;100453.09;4711720;30;20052;-85
2022/08/09 00:43:21;;;;;;;7.50;4.00;;;;;;;17.36;77.40;100429.91;4711944;30;20079;-84
2022/08/09 00:45:48;;;;;;;8.88;4.65;;;;;;;17.50;77.47;100463.75;4729314;30;20531;-83
2022/08/09 00:48:14;;;;;;;4.95;4.00;;;;;;;17.34;77.39;100426.47;4729771;30;20068;-83
2022/08/09 00:50:40;;;;;;;4.97;4.05;;;;;;;17.12;77.38;100392.88;4711595;30;20053;-85
2022/08/09 00:53:08;;;;;;;6.32;4.38;;;;;;;17.08;77.33;100378.94;4713711;30;20049;-83
2022/08/09 00:55:36;;;;;;;6.20;4.68;;;;;;;17.24;77.05;100425.84;4730391;30;20202;-83
2022/08/09 00:58:03;;;;;;;11.07;5.43;;;;;;;17.39;77.05;100461.41;4739164;30;20056;-83
2022/08/09 01:00:29;;;;;;;6.60;4.68;;;;;;;17.15;76.93;100440.09;4727361;30;20056;-83
2022/08/09 01:03:33;;;;;;;6.78;4.90;;;;;;;17.40;77.26;100474.50;4739071;30;20131;-84
2022/08/09 01:06:10;;;;;;;10.93;6.68;;;;;;;17.15;76.61;100445.38;4729867;30;21191;-84
2022/08/09 01:08:54;;;;;;;8.25;5.43;;;;;;;17.06;77.25;100430.69;4714347;30;20116;-85
2022/08/09 01:11:57;;;;;;;7.40;5.40;;;;;;;17.44;77.14;100488.44;4716073;30;20048;-85
2022/08/09 01:14:39;;;;;;;11.13;7.00;;;;;;;17.30;76.86;100462.53;4728318;30;20403;-84
2022/08/09 01:17:31;;;;;;;9.40;6.63;;;;;;;17.06;76.94;100440.34;4729967;30;20052;-84
2022/08/09 01:20:02;;;;;;;9.20;6.82;;;;;;;17.11;76.84;100439.31;4712777;30;20345;-83
2022/08/09 01:22:51;;;;;;;9.07;6.85;;;;;;;17.39;76.93;100488.56;4713252;30;20048;-85
2022/08/09 01:25:23;;;;;;;10.40;7.18;;;;;;;17.38;76.60;100491.25;4715369;30;20536;-82
2022/08/09 01:27:52;;;;;;;12.48;7.60;;;;;;;17.03;76.27;100433.41;4732372;30;20051;-83
2022/08/09 01:30:24;;;;;;;11.10;7.50;;;;;;;17.04;76.68;100444.75;4734455;30;20068;-83
2022/08/09 01:32:53;;;;;;;10.70;7.97;;;;;;;17.28;76.53;100480.09;4726721;30;20044;-84
2022/08/09 01:35:31;;;;;;;9.70;7.40;;;;;;;17.05;76.49;100459.63;4730682;30;20211;-82
2022/08/09 01:38:01;;;;;;;16.17;8.50;;;;;;;17.05;76.43;100457.88;4700792;30;20114;-83
2022/08/09 01:40:28;;;;;;;11.45;7.78;;;;;;;16.76;76.53;100420.00;4727018;30;20455;-82
2022/08/09 01:42:55;;;;;;;10.07;8.35;;;;;;;17.06;76.57;100458.75;4716960;30;20052;-82
2022/08/09 01:45:23;;;;;;;10.85;9.38;;;;;;;16.94;76.22;100450.25;4698671;30;20099;-82
2022/08/09 01:47:50;;;;;;;13.98;9.68;;;;;;;17.11;76.31;100491.88;4729073;30;20049;-83
2022/08/09 01:50:18;;;;;;;12.48;9.48;;;;;;;16.51;76.39;100406.63;4738891;30;20036;-80
2022/08/09 01:52:46;;;;;;;13.43;8.27;;;;;;;17.06;76.49;100496.44;4743218;30;20096;-80
2022/08/09 01:55:13;;;;;;;12.40;8.60;;;;;;;17.08;76.44;100497.25;4731673;30;20128;-82
2022/08/09 01:57:43;;;;;;;10.48;8.70;;;;;;;16.78;76.45;100438.34;4733271;30;20188;-82
2022/08/09 02:00:10;;;;;;;10.95;8.75;;;;;;;16.83;76.58;100447.88;4722378;30;20150;-83
2022/08/09 02:02:42;;;;;;;11.60;8.52;;;;;;;17.14;76.18;100497.06;4725754;30;20056;-82
2022/08/09 02:05:11;;;;;;;11.25;8.75;;;;;;;17.23;76.41;100506.50;4730428;30;20052;-82
2022/08/09 02:07:44;;;;;;;14.55;9.35;;;;;;;16.99;76.07;100463.28;4738648;30;20059;-81
2022/08/09 02:10:18;;;;;;;10.40;8.50;;;;;;;17.16;76.03;100487.38;4728440;30;20057;-82
2022/08/09 02:12:46;;;;;;;13.32;9.25;;;;;;;16.72;76.00;100420.97;4738529;30;20152;-82
2022/08/09 02:15:16;;;;;;;11.82;8.77;;;;;;;16.99;76.12;100445.75;4732487;30;20044;-82
2022/08/09 02:17:50;;;;;;;11.77;9.50;;;;;;;17.31;75.80;100506.31;4734276;30;20060;-82
2022/08/09 02:20:16;;;;;;;13.02;10.05;;;;;;;16.93;75.62;100463.41;4734923;30;20051;-82
2022/08/09 02:22:50;;;;;;;11.57;9.20;;;;;;;17.09;76.05;100483.22;4737826;30;20060;-84
2022/08/09 02:25:23;;;;;;;13.50;9.60;;;;;;;17.35;75.91;100499.22;4733833;30;20041;-83
2022/08/09 02:27:55;;;;;;;13.85;9.73;;;;;;;17.42;75.37;100499.00;4750664;30;20029;-83
2022/08/09 02:30:22;;;;;;;10.80;8.65;;;;;;;17.43;76.07;100482.31;4716068;30;20102;-83
2022/08/09 02:32:50;;;;;;;13.20;10.30;;;;;;;17.35;75.73;100452.72;4727245;30;20157;-82
2022/08/09 02:35:23;;;;;;;12.63;9.25;;;;;;;17.26;75.76;100438.03;4712522;30;20087;-82
2022/08/09 02:37:59;;;;;;;10.60;9.20;;;;;;;17.28;75.33;100454.66;4729451;30;20559;-83
2022/08/09 02:40:25;;;;;;;11.20;9.13;;;;;;;17.57;75.76;100508.28;4717224;30;20045;-85
2022/08/09 02:42:54;;;;;;;10.40;8.43;;;;;;;17.57;75.52;100503.00;4731378;30;20087;-82
2022/08/09 02:45:22;;;;;;;12.77;8.15;;;;;;;17.68;75.48;100509.72;4729794;30;20051;-83
2022/08/09 02:47:52;;;;;;;12.43;8.10;;;;;;;17.58;75.44;100494.22;4728263;30;20060;-85
2022/08/09 02:50:47;;;;;;;8.82;7.03;;;;;;;17.76;75.30;100513.88;4716711;30;20056;-83
2022/08/09 02:53:21;;;;;;;8.63;7.18;;;;;;;17.48;75.47;100463.78;4726865;30;20052;-83
2022/08/09 02:55:49;;;;;;;11.73;6.43;;;;;;;17.53;75.52;100458.41;4727587;30;20056;-85
2022/08/09 02:58:17;;;;;;;11.27;6.40;;;;;;;17.53;75.08;100461.88;4727696;30;20048;-83
2022/08/09 03:00:44;;;;;;;9.32;6.47;;;;;;;17.57;74.97;100465.28;4708034;30;20065;-83
2022/08/09 03:03:12;;;;;;;10.82;6.20;;;;;;;17.55;74.84;100465.34;4732691;30;20040;-84
2022/08/09 03:05:40;;;;;;;8.20;5.80;;;;;;;17.93;74.93;100515.19;4720044;30;20041;-83
2022/08/09 03:08:09;;;;;;;8.23;5.65;;;;;;;17.93;74.90;100504.66;4730773;30;20056;-84
2022/08/09 03:10:37;;;;;;;9.93;6.07;;;;;;;18.03;74.78;100510.56;4727518;30;20048;-84
2022/08/09 03:13:04;;;;;;;6.35;5.25;;;;;;;17.72;74.61;100462.25;4744713;30;20082;-83
2022/08/09 03:15:32;;;;;;;9.60;6.63;;;;;;;17.87;74.32;100475.88;4699028;30;20498;-85
2022/08/09 03:17:59;;;;;;;9.60;6.97;;;;;;;18.32;74.23;100533.41;4716232;30;20052;-82
2022/08/09 03:20:26;;;;;;;10.65;8.43;;;;;;;18.27;73.42;100524.78;4725615;30;20140;-84
2022/08/09 03:22:53;;;;;;;10.27;7.78;;;;;;;18.28;73.73;100518.59;4727818;30;20587;-83
2022/08/09 03:25:19;;;;;;;11.50;7.93;;;;;;;18.42;73.75;100520.84;4710623;30;20130;-84
2022/08/09 03:27:51;;;;;;;11.88;8.70;;;;;;;18.39;73.86;100506.91;4725366;30;20047;-84
2022/08/09 03:30:18;;;;;;;9.80;7.57;;;;;;;18.43;73.57;100498.84;4726799;30;20083;-84
2022/08/09 03:32:45;;;;;;;9.45;7.65;;;;;;;18.21;72.88;100481.06;4727251;30;20048;-84
2022/08/09 03:35:11;;;;;;;12.52;8.40;;;;;;;18.45;72.49;100527.78;4727204;30;20053;-81
2022/08/09 03:37:41;;;;;;;9.40;8.13;;;;;;;18.19;72.93;100471.50;4712375;30;20048;-82
2022/08/09 03:40:08;;;;;;;12.75;7.00;;;;;;;18.62;73.24;100514.09;4727317;30;20071;-83
2022/08/09 03:42:34;;;;;;;9.25;7.25;;;;;;;18.62;72.78;100495.63;4724226;30;20052;-83
2022/08/09 03:45:00;;;;;;;9.73;7.35;;;;;;;18.88;72.63;100525.59;4717875;30;20544;-83
2022/08/09 03:47:27;;;;;;;9.30;7.57;;;;;;;18.78;71.83;100493.38;4715063;30;20052;-82
2022/08/09 03:49:54;;;;;;;9.45;7.93;;;;;;;19.02;71.62;100528.66;4717562;30;20041;-82
2022/08/09 03:52:22;;;;;;;9.85;7.38;;;;;;;19.08;72.01;100522.34;4722544;30;20048;-81
2022/08/09 03:54:51;;;;;;;11.18;7.60;;;;;;;19.06;71.35;100516.25;4739264;30;20516;-82
2022/08/09 03:57:18;;;;;;;10.80;8.15;;;;;;;19.07;71.18;100520.63;4750740;30;20048;-80
2022/08/09 03:59:45;;;;;;;11.27;8.98;;;;;;;18.80;71.26;100478.38;4750365;30;20049;-78
2022/08/09 04:02:11;;;;;;;11.52;10.05;;;;;;;18.87;71.08;100494.88;4730581;30;20053;-80
2022/08/09 04:04:37;;;;;;;12.07;10.73;;;;;;;19.12;70.92;100534.50;4730337;30;20055;-79
2022/08/09 04:07:04;;;;;;;11.63;10.43;;;;;;;19.07;71.08;100515.34;4719210;30;20106;-86
2022/08/09 04:09:31;;;;;;;13.95;9.63;;;;;;;19.25;70.78;100529.69;4706177;30;20064;-80
2022/08/09 04:12:16;;;;;;;10.85;9.13;;;;;;;19.02;70.62;100485.63;4719235;30;20048;-84
2022/08/09 04:14:42;;;;;;;12.65;8.68;;;;;;;19.15;70.47;100507.19;4741532;30;20048;-82
2022/08/09 04:17:08;;;;;;;9.43;8.40;;;;;;;19.42;70.33;100526.47;4738432;30;20056;-83
2022/08/09 04:19:35;;;;;;;12.90;9.45;;;;;;;19.34;69.91;100491.56;4737756;30;20056;-81
2022/08/09 04:22:01;;;;;;;14.25;8.77;;;;;;;19.32;69.86;100467.00;4728568;30;20514;-81
2022/08/09 04:24:28;;;;;;;9.73;8.60;;;;;;;19.66;69.58;100518.63;4738045;30;20058;-80
2022/08/09 04:26:55;;;;;;;11.10;9.10;;;;;;;19.47;69.25;100484.97;4747745;30;20141;-82
2022/08/09 04:29:21;;;;;;;12.70;9.60;;;;;;;19.48;68.97;100485.81;4722254;30;20433;-82
2022/08/09 04:31:47;;;;;;;13.13;9.18;;;;;;;19.30;68.66;100451.25;4737221;30;20048;-82
2022/08/09 04:34:13;;;;;;;11.55;9.82;;;;;;;19.65;68.50;100501.06;4739186;30;20056;-81
2022/08/09 04:36:40;;;;;;;12.05;9.27;;;;;;;19.92;68.68;100515.06;4740981;30;20040;-79
2022/08/09 04:39:09;;;;;;;14.40;9.38;;;;;;;20.13;68.75;100499.34;4755057;30;20044;-83
2022/08/09 04:41:35;;;;;;;11.48;9.32;;;;;;;20.31;68.26;100463.44;4741036;30;20147;-83
2022/08/09 04:44:03;;;;;;;11.95;9.30;;;;;;;20.74;67.84;100513.75;4747954;30;20166;-79
2022/08/09 04:46:31;;;;;;;11.20;9.38;;;;;;;20.74;66.89;100485.53;4739442;30;20044;-84
2022/08/09 04:48:57;;;;;;;11.50;9.32;;;;;;;20.64;66.73;100470.09;4722107;30;20045;-83
2022/08/09 04:51:23;;;;;;;12.27;9.15;;;;;;;20.75;66.57;100487.25;4723282;30;20485;-84
2022/08/09 04:53:49;;;;;;;11.25;9.45;;;;;;;20.64;65.74;100459.53;4723075;30;20071;-81
2022/08/09 04:56:15;;;;;;;12.55;9.57;;;;;;;21.01;65.77;100498.59;4707727;30;20076;-81
2022/08/09 04:58:41;;;;;;;12.82;9.73;;;;;;;21.09;65.51;100477.09;4708957;30;20052;-83
2022/08/09 05:01:08;;;;;;;11.48;10.25;;;;;;;21.09;64.88;100486.81;4738246;30;20049;-81
2022/08/09 05:03:34;;;;;;;12.02;10.43;;;;;;;21.03;64.24;100488.81;4739509;30;20113;-82
2022/08/09 05:06:00;;;;;;;13.13;11.57;;;;;;;20.96;64.25;100481.19;4728423;30;20048;-84
2022/08/09 05:08:26;;;;;;;13.43;11.32;;;;;;;20.84;64.14;100467.53;4737407;30;20075;-82
2022/08/09 05:10:52;;;;;;;13.43;11.32;;;;;;;21.06;64.08;100493.97;4722257;30;20052;-82
2022/08/09 05:13:18;;;;;;;12.73;11.38;;;;;;;21.01;63.84;100477.41;4717521;30;20077;-82
2022/08/09 05:15:44;;;;;;;14.13;12.70;;;;;;;21.06;63.46;100488.69;4700675;30;20044;-83
2022/08/09 05:18:11;;;;;;;15.63;11.45;;;;;;;20.74;63.45;100442.38;4711773;30;20055;-83
2022/08/09 05:20:37;;;;;;;18.77;13.07;;;;;;;20.96;63.55;100479.38;4734634;30;20044;-81
2022/08/09 05:23:02;;;;;;;15.35;12.68;;;;;;;20.87;64.10;100474.47;4732302;30;20147;-81
2022/08/09 05:25:28;;;;;;;13.93;11.75;;;;;;;20.54;64.89;100438.72;4701638;30;20547;-82
2022/08/09 05:27:56;;;;;;;12.55;11.15;;;;;;;20.69;65.07;100458.41;4729035;30;20045;-82
2022/08/09 05:30:22;;;;;;;12.90;11.05;;;;;;;20.77;65.35;100466.06;4736386;30;20727;-80
2022/08/09 05:32:50;;;;;;;12.05;10.68;;;;;;;20.67;65.72;100433.81;4719231;30;20058;-81
2022/08/09 05:35:16;;;;;;;11.50;9.85;;;;;;;20.77;65.10;100440.47;4726094;30;20056;-83
2022/08/09 05:37:42;;;;;;;12.02;10.65;;;;;;;20.87;64.88;100443.59;4710798;30;20053;-83
2022/08/09 05:40:09;;;;;;;11.65;9.85;;;;;;;21.32;65.05;100491.13;4727835;30;20107;-83
2022/08/09 05:42:36;;;;;;;10.50;9.38;;;;;;;21.43;64.57;100485.38;4711537;30;20155;-82
2022/08/09 05:45:03;;;;;;;11.80;10.50;;;;;;;21.64;64.37;100494.19;4714684;30;20052;-81
2022/08/09 05:47:30;;;;;;;9.77;8.77;;;;;;;21.81;63.95;100486.38;4699932;30;20153;-82
2022/08/09 05:49:56;;;;;;;11.15;9.48;;;;;;;21.89;63.54;100474.53;4699736;30;20521;-81
2022/08/09 05:52:22;;;;;;;10.43;9.32;;;;;;;21.96;63.10;100462.75;4713776;30;20040;-81
2022/08/09 05:54:54;;;;;;;11.73;9.00;;;;;;;21.99;62.67;100488.22;4726786;30;20108;-81
2022/08/09 05:57:43;;;;;;;9.90;8.70;;;;;;;21.87;62.38;100485.22;4747146;30;20044;-80
2022/08/09 06:00:10;;;;;;;10.40;9.13;;;;;;;21.71;62.38;100490.34;4726784;30;20082;-81
2022/08/09 06:02:39;;;;;;;10.10;8.70;;;;;;;21.70;62.12;100496.56;4709117;30;20422;-81
2022/08/09 06:05:06;;;;;;;11.15;8.95;;;;;;;21.67;61.96;100494.94;4729881;30;20053;-81
2022/08/09 06:07:38;;;;;;;12.77;8.85;;;;;;;21.51;61.94;100473.53;4700705;30;20073;-81
2022/08/09 06:10:05;;;;;;;12.65;8.48;;;;;;;21.37;61.68;100439.72;4746551;30;20104;-83
2022/08/09 06:12:31;;;;;;;8.52;7.65;;;;;;;21.67;61.60;100471.09;4747542;30;20065;-81
2022/08/09 06:14:58;;;;;;;8.50;7.15;;;;;;;21.74;61.62;100478.75;4730068;30;20521;-82
2022/08/09 06:17:24;;;;;;;8.27;6.93;;;;;;;21.59;61.36;100449.34;4712282;30;20146;-82
2022/08/09 06:19:50;;;;;;;9.50;8.57;;;;;;;21.81;60.68;100485.50;4711179;30;20560;-82
2022/08/09 06:22:26;;;;;;;9.57;7.68;;;;;;;21.70;60.83;100466.59;4729242;30;20048;-82
2022/08/09 06:25:05;;;;;;;8.25;7.20;;;;;;;21.63;61.47;100488.03;4723648;30;20049;-82
2022/08/09 06:27:37;;;;;;;9.60;8.05;;;;;;;21.48;60.92;100451.63;4743787;30;20079;-79
2022/08/09 06:30:04;;;;;;;9.55;7.40;;;;;;;21.67;61.08;100484.34;4718122;30;20208;-81
2022/08/09 06:32:30;;;;;;;8.55;7.45;;;;;;;21.65;61.61;100475.59;4732127;30;20073;-82
2022/08/09 06:35:02;;;;;;;9.63;7.80;;;;;;;21.65;61.16;100459.72;4734485;30;20083;-81
2022/08/09 06:37:33;;;;;;;10.80;7.30;;;;;;;21.65;61.02;100454.41;4708458;30;20058;-80
2022/08/09 06:40:06;;;;;;;9.65;7.43;;;;;;;21.74;61.05;100474.31;4721939;30;20060;-83
2022/08/09 06:42:32;;;;;;;11.32;8.00;;;;;;;21.73;60.60;100462.00;4742490;30;20048;-81
2022/08/09 06:44:59;;;;;;;14.32;8.07;;;;;;;21.54;60.97;100439.91;4723518;30;20060;-81
2022/08/09 06:47:25;;;;;;;8.77;7.63;;;;;;;21.62;60.81;100480.19;4744333;30;20129;-82
2022/08/09 06:49:54;;;;;;;9.52;7.10;;;;;;;21.48;60.56;100462.22;4748384;30;20060;-82
2022/08/09 06:52:20;;;;;;;8.15;7.35;;;;;;;21.34;60.70;100461.00;4709346;30;20963;-82
2022/08/09 06:54:47;;;;;;;10.55;8.60;;;;;;;21.31;60.95;100469.09;4749845;30;20041;-82
2022/08/09 06:57:13;;;;;;;10.07;7.60;;;;;;;21.17;61.17;100463.53;4733589;30;20115;-82
2022/08/09 06:59:39;;;;;;;9.50;8.20;;;;;;;21.09;61.92;100476.22;4742517;30;20456;-81
2022/08/09 07:02:06;;;;;;;10.55;7.80;;;;;;;20.87;62.54;100471.81;4724475;30;20053;-82
2022/08/09 07:04:33;;;;;;;9.73;7.90;;;;;;;20.82;62.78;100487.03;4731506;30;20078;-82
2022/08/09 07:07:00;;;;;;;9.68;7.75;;;;;;;20.92;63.36;100506.88;4739228;30;20052;-81
2022/08/09 07:09:27;;;;;;;10.93;8.07;;;;;;;20.77;63.14;100468.69;4719764;30;20090;-81
2022/08/09 07:11:53;;;;;;;13.55;10.70;;;;;;;20.96;63.33;100482.03;4727642;30;20052;-82
2022/08/09 07:14:20;;;;;;;9.68;7.70;;;;;;;21.10;63.29;100502.63;4717596;30;20142;-82
2022/08/09 07:16:57;;;;;;;10.45;8.85;;;;;;;21.09;63.44;100508.84;4727741;30;20069;-83
2022/08/09 07:19:27;;;;;;;8.43;7.53;;;;;;;21.12;63.36;100499.91;4733129;30;20048;-82
2022/08/09 07:21:57;;;;;;;7.32;6.53;;;;;;;21.16;63.05;100498.84;4718378;30;20048;-82
2022/08/09 07:24:30;;;;;;;8.10;7.13;;;;;;;21.28;63.15;100508.94;4732273;30;20031;-83
2022/08/09 07:27:16;;;;;;;8.00;6.78;;;;;;;21.51;62.79;100509.75;4722571;30;20049;-80
2022/08/09 07:29:47;;;;;;;6.97;6.20;;;;;;;21.58;62.48;100499.75;4706684;30;20072;-80
2022/08/09 07:32:13;;;;;;;9.63;6.88;;;;;;;21.70;62.30;100504.50;4694635;30;20152;-81
2022/08/09 07:34:39;;;;;;;7.35;6.43;;;;;;;21.88;62.02;100525.81;4703845;30;20052;-82
2022/08/09 07:37:05;;;;;;;7.75;6.57;;;;;;;21.77;61.92;100518.34;4733587;30;20052;-82
2022/08/09 07:39:41;;;;;;;9.68;6.53;;;;;;;21.63;61.75;100525.13;4720188;30;20063;-82
2022/08/09 07:42:08;;;;;;;8.73;6.75;;;;;;;21.37;62.05;100508.53;4747407;30;20056;-82
2022/08/09 07:44:35;;;;;;;10.27;6.28;;;;;;;21.33;62.07;100522.81;4720721;30;20104;-81
2022/08/09 07:47:04;;;;;;;7.65;6.80;;;;;;;21.12;62.21;100502.53;4720826;30;20048;-81
2022/08/09 07:49:34;;;;;;;8.20;6.30;;;;;;;20.83;62.18;100479.03;4706288;30;20049;-81
2022/08/09 07:52:21;;;;;;;7.53;6.50;;;;;;;20.97;62.72;100509.31;4720752;30;20151;-81
2022/08/09 07:54:48;;;;;;;7.30;6.57;;;;;;;20.67;63.06;100454.97;4720256;30;20075;-84
2022/08/09 07:57:17;;;;;;;11.88;6.65;;;;;;;20.93;63.02;100519.19;4746009;30;20075;-81
2022/08/09 07:59:47;;;;;;;7.82;6.60;;;;;;;20.57;62.96;100480.91;4724895;30;20032;-81
2022/08/09 08:02:28;;;;;;;8.13;5.82;;;;;;;20.79;63.28;100521.53;4732492;30;20061;-81
2022/08/09 08:05:21;;;;;;;7.03;6.28;;;;;;;20.64;62.97;100492.09;4709190;30;20079;-82
2022/08/09 08:07:53;;;;;;;7.70;6.90;;;;;;;20.61;63.66;100474.59;4720486;30;20062;-83
2022/08/09 08:10:28;;;;;;;7.40;6.65;;;;;;;20.99;63.58;100521.59;4710908;30;20068;-85
2022/08/09 08:12:56;;;;;;;8.70;7.78;;;;;;;20.99;62.33;100507.47;4705031;30;20048;-83
2022/08/09 08:15:22;;;;;;;7.78;6.97;;;;;;;20.90;62.99;100477.88;4721951;30;20080;-83
2022/08/09 08:17:52;;;;;;;7.57;6.78;;;;;;;21.17;63.11;100487.34;4712281;30;20426;-82
2022/08/09 08:20:20;;;;;;;8.02;6.72;;;;;;;21.46;62.90;100509.91;4704355;30;20045;-82
2022/08/09 08:23:12;;;;;;;8.45;6.57;;;;;;;21.91;62.78;100526.53;4724414;30;20060;-83
2022/08/09 08:25:51;;;;;;;7.75;6.68;;;;;;;22.35;62.39;100527.22;4691047;30;20101;-83
2022/08/09 08:28:40;;;;;;;6.63;5.93;;;;;;;22.48;61.23;100516.94;4706038;30;20030;-82
2022/08/09 08:31:09;;;;;;;5.97;5.38;;;;;;;22.51;60.82;100511.50;4705808;30;20053;-83
2022/08/09 08:33:36;;;;;;;6.00;5.40;;;;;;;22.53;60.83;100515.78;4718678;30;20034;-81
2022/08/09 08:36:05;;;;;;;6.20;5.38;;;;;;;22.61;59.89;100518.06;4678155;30;20053;-83
2022/08/09 08:38:34;;;;;;;6.10;5.28;;;;;;;22.51;60.17;100516.81;4719777;30;20045;-80
2022/08/09 08:41:20;;;;;;;6.55;5.80;;;;;;;22.63;60.23;100518.84;4698955;30;20143;-82
2022/08/09 08:43:50;;;;;;;6.03;5.40;;;;;;;22.39;59.71;100475.78;4713406;30;20113;-83
2022/08/09 08:46:39;;;;;;;6.20;5.60;;;;;;;22.67;59.29;100515.13;4717881;30;20025;-82
2022/08/09 08:49:10;;;;;;;7.47;6.68;;;;;;;22.52;59.58;100484.03;4720782;30;20050;-81
2022/08/09 08:51:42;;;;;;;7.75;6.57;;;;;;;22.64;59.03;100507.31;4729699;30;20045;-80
2022/08/09 08:54:11;;;;;;;8.13;6.88;;;;;;;22.62;59.21;100505.69;4725184;30;20534;-82
2022/08/09 08:56:39;;;;;;;7.43;6.10;;;;;;;22.54;58.92;100501.59;4693610;30;20403;-81
2022/08/09 08:59:08;;;;;;;8.15;6.85;;;;;;;22.76;58.04;100527.09;4696021;30;20064;-82
2022/08/09 09:01:36;;;;;;;7.38;6.68;;;;;;;22.82;59.03;100531.22;4695463;30;20081;-81
2022/08/09 09:04:03;;;;;;;7.75;6.63;;;;;;;22.65;59.14;100493.13;4711744;30;20061;-83
2022/08/09 09:06:33;;;;;;;6.93;6.22;;;;;;;23.04;59.07;100524.88;4711048;30;20045;-81
2022/08/09 09:09:03;;;;;;;7.80;6.88;;;;;;;23.20;58.72;100483.34;4711894;30;20096;-83
2022/08/09 09:11:30;;;;;;;8.02;6.43;;;;;;;24.06;57.62;100519.66;4712512;30;20049;-83
2022/08/09 09:13:59;;;;;;;7.28;6.55;;;;;;;24.05;55.80;100497.56;4699494;30;20104;-82
2022/08/09 09:16:28;;;;;;;8.13;7.28;;;;;;;24.34;56.56;100494.22;4707522;30;20131;-82
2022/08/09 09:18:54;;;;;;;7.97;7.13;;;;;;;24.43;54.92;100477.78;4731385;30;20041;-83
2022/08/09 09:21:20;;;;;;;7.78;6.43;;;;;;;24.85;55.68;100486.06;4677365;30;20679;-82
2022/08/09 09:23:47;;;;;;;7.35;6.65;;;;;;;25.43;55.88;100515.56;4667063;30;20048;-81
2022/08/09 09:26:14;;;;;;;7.10;6.10;;;;;;;26.08;53.67;100466.28;4684035;30;20056;-83
2022/08/09 09:28:50;;;;;;;8.07;6.97;;;;;;;26.37;52.55;100495.56;4712090;30;20107;-82
2022/08/09 09:31:18;;;;;;;8.98;6.80;;;;;;;26.55;51.73;100442.00;4691747;30;20060;-83
2022/08/09 09:33:45;;;;;;;11.25;7.28;;;;;;;27.18;50.20;100503.69;4697913;30;20053;-86
2022/08/09 09:36:12;;;;;;;7.63;6.55;;;;;;;26.96;49.96;100451.75;4711847;30;20053;-84
2022/08/09 09:38:45;;;;;;;8.23;7.15;;;;;;;26.86;49.86;100461.31;4711642;30;20135;-83
2022/08/09 09:41:26;;;;;;;9.77;7.10;;;;;;;26.50;49.55;100500.97;4717067;30;20068;-83
2022/08/09 09:43:57;;;;;;;7.72;6.80;;;;;;;25.94;49.85;100482.28;4708800;30;20054;-84
2022/08/09 09:46:31;;;;;;;7.53;6.83;;;;;;;25.69;50.73;100489.16;4683909;30;20123;-84
2022/08/09 09:49:06;;;;;;;8.30;7.25;;;;;;;25.15;50.00;100466.59;4709221;30;20376;-82
2022/08/09 09:51:34;;;;;;;9.00;6.82;;;;;;;25.21;51.18;100514.16;4713863;30;20046;-82
2022/08/09 09:54:04;;;;;;;14.05;6.88;;;;;;;25.00;50.96;100507.44;4717080;30;21427;-83
2022/08/09 09:56:33;;;;;;;8.65;7.28;;;;;;;24.83;51.58;100489.78;4691593;30;20095;-85
2022/08/09 09:58:59;;;;;;;8.32;7.50;;;;;;;24.99;51.95;100497.72;4708749;30;20055;-83
2022/08/09 10:01:26;;;;;;;7.97;7.18;;;;;;;25.27;51.51;100516.44;4708225;30;20060;-85
2022/08/09 10:03:53;;;;;;;7.63;6.90;;;;;;;25.73;51.80;100498.66;4709328;30;20542;-82
2022/08/09 10:06:19;;;;;;;7.93;7.13;;;;;;;25.98;50.52;100446.47;4696571;30;20052;-84
2022/08/09 10:08:47;;;;;;;7.82;7.03;;;;;;;26.51;49.29;100433.31;4700167;30;20497;-84
2022/08/09 10:11:25;;;;;;;10.05;7.68;;;;;;;27.52;49.24;100493.38;4724640;30;20105;-84
2022/08/09 10:13:54;;;;;;;9.43;7.57;;;;;;;27.98;47.08;100459.88;4715482;30;20095;-83
2022/08/09 10:16:28;;;;;;;7.30;6.60;;;;;;;28.51;46.90;100466.78;4725477;30;20071;-83
2022/08/09 10:18:56;;;;;;;10.70;7.93;;;;;;;28.89;45.52;100489.03;4725700;30;20047;-83
2022/08/09 10:21:23;;;;;;;8.45;7.65;;;;;;;28.43;44.15;100483.41;4735611;30;20086;-83
2022/08/09 10:23:50;;;;;;;9.35;8.32;;;;;;;27.69;45.51;100491.38;4716081;30;20124;-83
2022/08/09 10:26:18;;;;;;;10.07;7.90;;;;;;;26.98;45.35;100481.00;4712091;30;20055;-85
2022/08/09 10:28:44;;;;;;;8.10;7.30;;;;;;;26.34;46.53;100490.47;4712311;30;21267;-83
2022/08/09 10:31:14;;;;;;;9.30;7.80;;;;;;;25.84;47.38;100452.66;4697456;30;20588;-82
2022/08/09 10:33:41;;;;;;;10.98;8.57;;;;;;;25.62;47.68;100479.81;4727445;30;20060;-83
2022/08/09 10:36:09;;;;;;;9.77;8.77;;;;;;;25.43;48.75;100496.91;4724712;30;20113;-83
2022/08/09 10:38:38;;;;;;;9.90;8.10;;;;;;;25.20;48.96;100464.50;4708813;30;20045;-83
2022/08/09 10:41:04;;;;;;;10.85;9.75;;;;;;;25.11;49.35;100468.59;4724638;30;20060;-83
2022/08/09 10:43:31;;;;;;;12.20;10.30;;;;;;;25.05;49.17;100494.69;4710231;30;20440;-81
2022/08/09 10:46:15;;;;;;;11.02;9.93;;;;;;;24.94;49.55;100487.31;4726348;30;20055;-84
2022/08/09 10:48:52;;;;;;;11.50;9.82;;;;;;;25.18;49.35;100516.13;4726140;30;20057;-83
2022/08/09 10:51:40;;;;;;;9.93;8.88;;;;;;;25.19;49.88;100497.41;4728771;30;20067;-83
2022/08/09 10:54:09;;;;;;;10.30;9.10;;;;;;;25.18;49.96;100489.50;4733524;30;20075;-82
2022/08/09 10:56:38;;;;;;;11.23;9.95;;;;;;;25.15;49.61;100484.38;4737856;30;20148;-85
2022/08/09 10:59:27;;;;;;;10.13;9.13;;;;;;;25.23;50.28;100498.94;4707236;30;20044;-85
2022/08/09 11:01:53;;;;;;;10.68;9.55;;;;;;;25.22;49.97;100491.91;4720086;30;20057;-86
2022/08/09 11:04:27;;;;;;;9.90;8.85;;;;;;;25.31;50.32;100518.91;4704037;30;20131;-86
2022/08/09 11:07:02;;;;;;;10.18;9.18;;;;;;;25.53;50.12;100513.19;4716272;30;20146;-86
2022/08/09 11:09:37;;;;;;;12.07;9.43;;;;;;;25.98;49.40;100511.31;4706638;30;20048;-84
2022/08/09 11:12:11;;;;;;;11.90;10.15;;;;;;;26.33;49.08;100517.22;4717113;30;20049;-85
2022/08/09 11:14:50;;;;;;;10.63;9.52;;;;;;;26.61;48.87;100506.47;4719749;30;20045;-83
2022/08/09 11:17:21;;;;;;;10.83;9.37;;;;;;;26.74;48.09;100509.19;4718774;30;20069;-83
2022/08/09 11:20:28;;;;;;;;;;;;;;;;;;;;;
2022/08/09 11:23:12;;;;;;;13.18;8.95;;;;;;;26.55;47.86;100452.66;4720835;30;20122;-84
2022/08/09 11:25:41;;;;;;;11.43;9.70;;;;;;;27.04;47.03;100509.97;4748514;30;20052;-82
2022/08/09 11:28:26;;;;;;;10.77;9.48;;;;;;;26.96;46.91;100504.25;4700108;30;20055;-84
2022/08/09 11:30:54;;;;;;;9.82;8.88;;;;;;;27.22;47.21;100507.88;4745744;30;20079;-83
2022/08/09 11:34:01;;;;;;;10.13;8.60;;;;;;;27.25;46.68;100462.25;4739890;30;20099;-84
2022/08/09 11:36:58;;;;;;;9.85;8.55;;;;;;;27.75;45.92;100499.81;4737175;30;20108;-85